Time;durP1;ratioP1;P1;durP2;ratioP2;P2;SDS_P1;SDS_P2;PMS_P1;PMS_P2;Temp;Humidity;BMP_temperature;BMP_pressure;BME280_temperature;BME280_humidity;BME280_pressure;Samples;Min_cycle;Max_cycle;Signal;HPM_P1;HPM_P2
2023/04/20 00:00:35;;;;;;;67.40;34.30;;;;;;;;;;107885;1247;22537;-79
2023/04/20 00:03:20;;;;;;;65.50;35.40;;;;;;;;;;107922;1252;22526;-79
2023/04/20 00:05:48;;;;;;;60.20;33.50;;;;;;;;;;107877;1247;24374;-79
2023/04/20 00:08:16;;;;;;;70.20;35.40;;;;;;;;;;107840;1248;24081;-80
2023/04/20 00:10:43;;;;;;;70.40;36.80;;;;;;;;;;111001;1247;22202;-80
2023/04/20 00:13:10;;;;;;;75.20;39.40;;;;;;;;;;111002;1248;23120;-79
2023/04/20 00:15:36;;;;;;;75.40;40.90;;;;;;;;;;111005;1248;22733;-80
2023/04/20 00:18:02;;;;;;;77.00;42.00;;;;;;;;;;111043;1247;22336;-79
2023/04/20 00:20:29;;;;;;;74.40;40.90;;;;;;;;;;110979;1248;22305;-80
2023/04/20 00:22:55;;;;;;;80.70;43.90;;;;;;;;;;110636;1247;22532;-80
2023/04/20 00:25:21;;;;;;;70.90;39.50;;;;;;;;;;107908;1251;22554;-79
2023/04/20 00:27:48;;;;;;;71.20;38.60;;;;;;;;;;107882;1248;22627;-79
2023/04/20 00:30:14;;;;;;;75.50;40.10;;;;;;;;;;108135;1247;23023;-80
2023/04/20 00:32:41;;;;;;;79.50;42.10;;;;;;;;;;108136;1251;25376;-79
2023/04/20 00:35:07;;;;;;;81.40;41.20;;;;;;;;;;108124;1248;22531;-80
2023/04/20 00:37:34;;;;;;;71.60;38.70;;;;;;;;;;108108;1248;22547;-80
2023/04/20 00:40:00;;;;;;;68.40;35.20;;;;;;;;;;108086;1248;23140;-80
2023/04/20 00:42:26;;;;;;;68.40;35.60;;;;;;;;;;108076;1248;24354;-80
2023/04/20 00:44:53;;;;;;;61.80;33.50;;;;;;;;;;107890;1252;25443;-80
2023/04/20 00:47:19;;;;;;;69.20;38.10;;;;;;;;;;108073;1248;26372;-79
2023/04/20 00:49:46;;;;;;;71.40;35.60;;;;;;;;;;108116;1248;24233;-80
2023/04/20 00:52:12;;;;;;;72.90;36.30;;;;;;;;;;108111;1248;22519;-79
2023/04/20 00:54:38;;;;;;;69.50;36.80;;;;;;;;;;107721;1248;25354;-79
2023/04/20 00:57:05;;;;;;;67.50;35.10;;;;;;;;;;107981;1247;22534;-80
2023/04/20 00:59:31;;;;;;;62.50;34.20;;;;;;;;;;108129;1248;25214;-80
2023/04/20 01:01:58;;;;;;;66.80;33.50;;;;;;;;;;107999;1248;24187;-79
2023/04/20 01:04:24;;;;;;;71.90;35.90;;;;;;;;;;107918;1248;24269;-80
2023/04/20 01:06:51;;;;;;;63.40;33.10;;;;;;;;;;108218;1247;22907;-79
2023/04/20 01:09:17;;;;;;;70.20;36.70;;;;;;;;;;111063;1247;23059;-78
2023/04/20 01:11:44;;;;;;;62.90;31.80;;;;;;;;;;109865;1248;24196;-80
2023/04/20 01:14:10;;;;;;;75.70;35.90;;;;;;;;;;107905;1247;24244;-79
2023/04/20 01:16:36;;;;;;;68.90;34.30;;;;;;;;;;107910;1247;22534;-79
2023/04/20 01:19:03;;;;;;;66.40;34.50;;;;;;;;;;107868;1248;22956;-81
2023/04/20 01:21:30;;;;;;;59.20;31.70;;;;;;;;;;107915;1248;22591;-79
2023/04/20 01:23:56;;;;;;;66.40;33.50;;;;;;;;;;107889;1248;23349;-80
2023/04/20 01:26:22;;;;;;;75.30;35.90;;;;;;;;;;107902;1248;26457;-81
2023/04/20 01:28:49;;;;;;;69.20;35.10;;;;;;;;;;107955;1248;22598;-81
2023/04/20 01:31:15;;;;;;;66.50;34.10;;;;;;;;;;108056;1248;26435;-79
2023/04/20 01:33:42;;;;;;;67.10;34.70;;;;;;;;;;108138;1251;24168;-80
2023/04/20 01:36:08;;;;;;;68.30;34.90;;;;;;;;;;108116;1248;22534;-81
2023/04/20 01:38:35;;;;;;;64.50;35.20;;;;;;;;;;108101;1248;25358;-81
2023/04/20 01:41:05;;;;;;;66.00;37.10;;;;;;;;;;108055;1248;23476;-81
2023/04/20 01:43:31;;;;;;;74.60;37.90;;;;;;;;;;110857;1247;22400;-77
2023/04/20 01:45:58;;;;;;;69.80;33.10;;;;;;;;;;110905;1247;22210;-78
2023/04/20 01:48:27;;;;;;;62.40;32.90;;;;;;;;;;110902;1248;22436;-77
2023/04/20 01:50:53;;;;;;;59.00;30.80;;;;;;;;;;111105;1247;22498;-77
2023/04/20 01:53:20;;;;;;;73.80;36.50;;;;;;;;;;109902;1247;22695;-80
2023/04/20 01:55:46;;;;;;;64.00;34.70;;;;;;;;;;110655;1248;22383;-80
2023/04/20 01:58:13;;;;;;;62.10;31.90;;;;;;;;;;108655;1248;152102;-81
2023/04/20 02:00:39;;;;;;;61.40;33.60;;;;;;;;;;108146;1248;24272;-78
2023/04/20 02:03:05;;;;;;;70.90;34.90;;;;;;;;;;107915;1248;22532;-78
2023/04/20 02:05:32;;;;;;;69.10;35.70;;;;;;;;;;107884;1248;22610;-78
2023/04/20 02:07:58;;;;;;;69.00;36.80;;;;;;;;;;107890;1247;23414;-78
2023/04/20 02:10:25;;;;;;;75.20;37.10;;;;;;;;;;107873;1247;24231;-79
2023/04/20 02:12:51;;;;;;;72.20;37.40;;;;;;;;;;107843;1247;22551;-79
2023/04/20 02:15:17;;;;;;;64.20;33.50;;;;;;;;;;107847;1254;22541;-78
2023/04/20 02:17:44;;;;;;;69.20;33.60;;;;;;;;;;107820;1247;24247;-79
2023/04/20 02:20:11;;;;;;;78.20;41.00;;;;;;;;;;107910;1253;26474;-79
2023/04/20 02:22:37;;;;;;;73.10;38.50;;;;;;;;;;107833;1247;25285;-79
2023/04/20 02:25:04;;;;;;;70.30;36.60;;;;;;;;;;107928;1247;24185;-79
2023/04/20 02:27:31;;;;;;;69.10;34.50;;;;;;;;;;107896;1247;25496;-79
2023/04/20 02:29:57;;;;;;;72.00;35.10;;;;;;;;;;107998;1248;24219;-79
2023/04/20 02:32:24;;;;;;;73.10;39.10;;;;;;;;;;108076;1251;22521;-78
2023/04/20 02:34:50;;;;;;;69.50;36.40;;;;;;;;;;108062;1248;22531;-78
2023/04/20 02:37:16;;;;;;;66.40;34.50;;;;;;;;;;108045;1248;22566;-79
2023/04/20 02:39:43;;;;;;;77.30;35.60;;;;;;;;;;108100;1247;25271;-78
2023/04/20 02:42:09;;;;;;;63.30;33.60;;;;;;;;;;107901;1247;24351;-79
2023/04/20 02:44:36;;;;;;;71.50;38.80;;;;;;;;;;108095;1247;22521;-79
2023/04/20 02:47:02;;;;;;;68.10;36.30;;;;;;;;;;108124;1247;25281;-78
2023/04/20 02:49:28;;;;;;;80.00;39.70;;;;;;;;;;108107;1248;23133;-79
2023/04/20 02:51:55;;;;;;;73.00;37.20;;;;;;;;;;108056;1248;22529;-78
2023/04/20 02:54:21;;;;;;;72.50;36.80;;;;;;;;;;107782;1248;25373;-79
2023/04/20 02:56:47;;;;;;;77.70;38.10;;;;;;;;;;108004;1248;25457;-80
2023/04/20 02:59:14;;;;;;;75.20;38.90;;;;;;;;;;108107;1248;25716;-80
2023/04/20 03:01:40;;;;;;;74.70;38.10;;;;;;;;;;107955;1247;25399;-79
2023/04/20 03:04:06;;;;;;;73.70;39.20;;;;;;;;;;107930;1247;25328;-80
2023/04/20 03:06:35;;;;;;;80.00;38.30;;;;;;;;;;107909;1250;22544;-78
2023/04/20 03:09:02;;;;;;;79.80;39.60;;;;;;;;;;107929;1248;26357;-80
2023/04/20 03:11:29;;;;;;;74.20;39.50;;;;;;;;;;110487;1247;22330;-80
2023/04/20 03:13:56;;;;;;;87.70;41.60;;;;;;;;;;108924;1247;22522;-79
2023/04/20 03:16:22;;;;;;;85.70;40.10;;;;;;;;;;107866;1247;23026;-79
2023/04/20 03:18:48;;;;;;;88.90;40.80;;;;;;;;;;107874;1248;22526;-78
2023/04/20 03:21:15;;;;;;;80.00;38.40;;;;;;;;;;107691;1248;22521;-80
2023/04/20 03:23:41;;;;;;;85.60;43.90;;;;;;;;;;107921;1248;23192;-78
2023/04/20 03:26:08;;;;;;;82.20;40.90;;;;;;;;;;107889;1247;22521;-78
2023/04/20 03:28:34;;;;;;;81.70;38.90;;;;;;;;;;107877;1248;22719;-78
2023/04/20 03:31:01;;;;;;;76.40;37.70;;;;;;;;;;108157;1251;22656;-80
2023/04/20 03:33:27;;;;;;;83.90;39.00;;;;;;;;;;107753;1248;25271;-78
2023/04/20 03:35:54;;;;;;;85.20;40.60;;;;;;;;;;107895;1248;22515;-78
2023/04/20 03:38:20;;;;;;;83.70;38.40;;;;;;;;;;108259;1248;23157;-78
2023/04/20 03:40:46;;;;;;;87.20;38.30;;;;;;;;;;109423;1248;24189;-79
2023/04/20 03:43:13;;;;;;;81.30;37.60;;;;;;;;;;108021;1248;26199;-79
2023/04/20 03:45:40;;;;;;;80.70;38.40;;;;;;;;;;109841;1247;22701;-78
2023/04/20 03:48:06;;;;;;;81.90;38.10;;;;;;;;;;108096;1247;22650;-80
2023/04/20 03:50:33;;;;;;;88.40;39.50;;;;;;;;;;108067;1248;25447;-80
2023/04/20 03:52:59;;;;;;;80.20;39.90;;;;;;;;;;108077;1248;22532;-80
2023/04/20 03:55:26;;;;;;;91.60;40.10;;;;;;;;;;108039;1247;24261;-81
2023/04/20 03:57:52;;;;;;;94.50;41.50;;;;;;;;;;107859;1250;26024;-80
2023/04/20 04:00:19;;;;;;;86.30;37.30;;;;;;;;;;107906;1253;25251;-80
2023/04/20 04:02:45;;;;;;;83.10;38.50;;;;;;;;;;107834;1247;22546;-79
2023/04/20 04:05:12;;;;;;;84.80;37.90;;;;;;;;;;107860;1247;22543;-78
2023/04/20 04:07:38;;;;;;;74.60;34.20;;;;;;;;;;107935;1248;24430;-78
2023/04/20 04:10:05;;;;;;;92.20;41.80;;;;;;;;;;107906;1247;24263;-78
2023/04/20 04:12:32;;;;;;;82.60;38.80;;;;;;;;;;107819;1253;24718;-79
2023/04/20 04:14:59;;;;;;;92.10;44.30;;;;;;;;;;107903;1247;25011;-78
2023/04/20 04:17:25;;;;;;;82.90;39.00;;;;;;;;;;107900;1247;22521;-78
2023/04/20 04:19:52;;;;;;;88.70;41.10;;;;;;;;;;107858;1251;23902;-79
2023/04/20 04:22:18;;;;;;;105.20;47.20;;;;;;;;;;107860;1248;22537;-79
2023/04/20 04:24:44;;;;;;;105.60;49.40;;;;;;;;;;107909;1247;24236;-79
2023/04/20 04:27:13;;;;;;;99.20;49.50;;;;;;;;;;107925;1247;22528;-79
2023/04/20 04:29:40;;;;;;;100.20;45.90;;;;;;;;;;108051;1248;24344;-81
2023/04/20 04:32:08;;;;;;;91.70;39.70;;;;;;;;;;109671;1247;22641;-79
2023/04/20 04:34:34;;;;;;;84.20;39.10;;;;;;;;;;108045;1247;22511;-78
2023/04/20 04:37:01;;;;;;;83.40;36.80;;;;;;;;;;108070;1248;22642;-78
2023/04/20 04:39:28;;;;;;;80.90;35.10;;;;;;;;;;108013;1248;22620;-78
2023/04/20 04:41:56;;;;;;;82.10;36.60;;;;;;;;;;108014;1247;22548;-79
2023/04/20 04:44:24;;;;;;;90.50;41.70;;;;;;;;;;107874;1248;22624;-79
2023/04/20 04:46:51;;;;;;;72.70;34.40;;;;;;;;;;108017;1248;25387;-79
2023/04/20 04:49:19;;;;;;;85.90;37.00;;;;;;;;;;108000;1247;23398;-79
2023/04/20 04:51:46;;;;;;;83.10;38.30;;;;;;;;;;108026;1247;25401;-78
2023/04/20 04:54:12;;;;;;;74.90;37.20;;;;;;;;;;108061;1247;25356;-78
2023/04/20 04:56:39;;;;;;;65.60;33.00;;;;;;;;;;107650;1248;22522;-79
2023/04/20 04:59:05;;;;;;;70.90;34.20;;;;;;;;;;107849;1248;22541;-80
2023/04/20 05:01:31;;;;;;;73.60;35.30;;;;;;;;;;107897;1248;23581;-79
2023/04/20 05:03:58;;;;;;;75.70;36.20;;;;;;;;;;107970;1247;25377;-78
2023/04/20 05:06:24;;;;;;;80.00;36.50;;;;;;;;;;107903;1247;22568;-79
2023/04/20 05:08:51;;;;;;;77.10;34.40;;;;;;;;;;107863;1248;22531;-79
2023/04/20 05:11:17;;;;;;;75.90;33.40;;;;;;;;;;107888;1248;24192;-78
2023/04/20 05:13:44;;;;;;;66.00;34.50;;;;;;;;;;107903;1247;24249;-79
2023/04/20 05:16:10;;;;;;;64.10;32.40;;;;;;;;;;107858;1247;22530;-79
2023/04/20 05:18:37;;;;;;;69.00;33.50;;;;;;;;;;107807;1247;22818;-79
2023/04/20 05:21:03;;;;;;;66.60;32.70;;;;;;;;;;107906;1247;22906;-78
2023/04/20 05:23:30;;;;;;;63.30;30.60;;;;;;;;;;107929;1248;22537;-79
2023/04/20 05:25:56;;;;;;;61.60;30.90;;;;;;;;;;107889;1247;22588;-79
2023/04/20 05:28:22;;;;;;;66.30;32.20;;;;;;;;;;107858;1247;24215;-80
2023/04/20 05:30:49;;;;;;;62.90;31.40;;;;;;;;;;107887;1248;24458;-78
2023/04/20 05:33:15;;;;;;;64.00;31.10;;;;;;;;;;107945;1247;23386;-80
2023/04/20 05:35:42;;;;;;;64.40;33.00;;;;;;;;;;107885;1250;22573;-79
2023/04/20 05:38:08;;;;;;;69.80;34.10;;;;;;;;;;107860;1248;22642;-80
2023/04/20 05:40:34;;;;;;;75.60;34.20;;;;;;;;;;107798;1247;22582;-79
2023/04/20 05:43:01;;;;;;;68.40;34.60;;;;;;;;;;108058;1248;22531;-79
2023/04/20 05:45:27;;;;;;;69.40;34.60;;;;;;;;;;108057;1247;22531;-79
2023/04/20 05:47:54;;;;;;;79.80;39.70;;;;;;;;;;108069;1247;22515;-78
2023/04/20 05:50:21;;;;;;;88.30;44.90;;;;;;;;;;108092;1247;24269;-79
2023/04/20 05:52:48;;;;;;;80.80;39.20;;;;;;;;;;108129;1248;22780;-78
2023/04/20 05:55:14;;;;;;;67.30;34.90;;;;;;;;;;108139;1247;23634;-80
2023/04/20 05:57:41;;;;;;;80.00;36.70;;;;;;;;;;107965;1247;25297;-78
2023/04/20 06:00:11;;;;;;;70.60;35.20;;;;;;;;;;108347;1247;22528;-79
2023/04/20 06:02:38;;;;;;;75.20;37.30;;;;;;;;;;108523;1253;23304;-78
2023/04/20 06:05:04;;;;;;;68.60;35.50;;;;;;;;;;108359;1248;23374;-80
2023/04/20 06:07:30;;;;;;;75.80;38.60;;;;;;;;;;108120;1248;25321;-79
2023/04/20 06:09:59;;;;;;;70.70;36.10;;;;;;;;;;108071;1247;22998;-78
2023/04/20 06:12:26;;;;;;;67.30;35.10;;;;;;;;;;108185;1248;23146;-80
2023/04/20 06:14:52;;;;;;;68.00;35.40;;;;;;;;;;108402;1247;22767;-78
2023/04/20 06:17:18;;;;;;;61.10;32.60;;;;;;;;;;108397;1248;24212;-79
2023/04/20 06:19:46;;;;;;;62.10;32.60;;;;;;;;;;108195;1248;22523;-78
2023/04/20 06:22:12;;;;;;;64.90;32.50;;;;;;;;;;108503;1248;23460;-80
2023/04/20 06:24:41;;;;;;;58.20;30.20;;;;;;;;;;108502;1247;23033;-80
2023/04/20 06:27:07;;;;;;;61.50;34.00;;;;;;;;;;108400;1248;25402;-80
2023/04/20 06:29:34;;;;;;;64.50;35.50;;;;;;;;;;108452;1250;22619;-80
2023/04/20 06:32:00;;;;;;;69.60;37.70;;;;;;;;;;108135;1252;22541;-80
2023/04/20 06:34:27;;;;;;;62.60;36.30;;;;;;;;;;107988;1252;25345;-78
2023/04/20 06:36:53;;;;;;;75.20;39.00;;;;;;;;;;108240;1248;24468;-79
2023/04/20 06:39:19;;;;;;;60.30;33.50;;;;;;;;;;108364;1248;25390;-78
2023/04/20 06:41:46;;;;;;;54.50;28.80;;;;;;;;;;108030;1247;25647;-80
2023/04/20 06:44:12;;;;;;;54.70;29.40;;;;;;;;;;108401;1250;23316;-78
2023/04/20 06:46:38;;;;;;;52.40;29.70;;;;;;;;;;108363;1247;24256;-78
2023/04/20 06:49:05;;;;;;;55.20;29.10;;;;;;;;;;108311;1247;23442;-79
2023/04/20 06:51:31;;;;;;;53.70;30.00;;;;;;;;;;108351;1247;22542;-79
2023/04/20 06:53:58;;;;;;;53.10;29.00;;;;;;;;;;108289;1247;24270;-79
2023/04/20 06:56:24;;;;;;;63.00;31.90;;;;;;;;;;108229;1248;22517;-79
2023/04/20 06:58:51;;;;;;;58.60;33.20;;;;;;;;;;108010;1247;25489;-77
2023/04/20 07:01:17;;;;;;;56.80;31.20;;;;;;;;;;108146;1248;24355;-81
2023/04/20 07:03:45;;;;;;;52.20;28.90;;;;;;;;;;108049;1247;25271;-80
2023/04/20 07:06:11;;;;;;;59.40;33.50;;;;;;;;;;108007;1247;22490;-80
2023/04/20 07:08:38;;;;;;;57.40;30.20;;;;;;;;;;108144;1251;22675;-79
2023/04/20 07:11:04;;;;;;;57.80;30.40;;;;;;;;;;107944;1247;22519;-79
2023/04/20 07:13:31;;;;;;;49.80;28.50;;;;;;;;;;107999;1250;22524;-80
2023/04/20 07:15:57;;;;;;;53.20;29.90;;;;;;;;;;107961;1248;23051;-79
2023/04/20 07:18:24;;;;;;;55.60;31.30;;;;;;;;;;107966;1247;23000;-81
2023/04/20 07:20:51;;;;;;;56.30;29.90;;;;;;;;;;108005;1247;22602;-79
2023/04/20 07:23:17;;;;;;;52.90;30.00;;;;;;;;;;108209;1248;22660;-79
2023/04/20 07:25:43;;;;;;;59.60;31.40;;;;;;;;;;108129;1247;22578;-79
2023/04/20 07:28:10;;;;;;;49.10;28.00;;;;;;;;;;108013;1250;27702;-79
2023/04/20 07:30:36;;;;;;;52.30;28.80;;;;;;;;;;108217;1247;22560;-79
2023/04/20 07:33:02;;;;;;;51.40;29.70;;;;;;;;;;108280;1247;25336;-80
2023/04/20 07:35:29;;;;;;;50.00;28.40;;;;;;;;;;108189;1248;25256;-79
2023/04/20 07:37:55;;;;;;;48.40;27.50;;;;;;;;;;108103;1247;22531;-79
2023/04/20 07:40:22;;;;;;;49.90;28.60;;;;;;;;;;108038;1248;25495;-78
2023/04/20 07:42:49;;;;;;;53.70;28.40;;;;;;;;;;109192;1247;22431;-81
2023/04/20 07:45:16;;;;;;;53.60;28.90;;;;;;;;;;110035;1252;26394;-81
2023/04/20 07:47:45;;;;;;;47.20;27.70;;;;;;;;;;108167;1248;22570;-79
2023/04/20 07:50:12;;;;;;;52.90;26.30;;;;;;;;;;108169;1251;24387;-79
2023/04/20 07:52:38;;;;;;;40.60;25.00;;;;;;;;;;108185;1247;22654;-79
2023/04/20 07:55:06;;;;;;;44.70;27.20;;;;;;;;;;108175;1248;25390;-80
2023/04/20 07:57:33;;;;;;;45.80;25.30;;;;;;;;;;108080;1247;22589;-79
2023/04/20 08:00:00;;;;;;;52.50;29.50;;;;;;;;;;107935;1247;22629;-80
2023/04/20 08:02:26;;;;;;;52.10;29.10;;;;;;;;;;107922;1248;22524;-80
2023/04/20 08:04:53;;;;;;;43.90;26.10;;;;;;;;;;108087;1248;24340;-81
2023/04/20 08:07:20;;;;;;;47.20;28.60;;;;;;;;;;108021;1247;24180;-80
2023/04/20 08:09:46;;;;;;;48.50;29.10;;;;;;;;;;108050;1248;22521;-80
2023/04/20 08:12:12;;;;;;;47.40;27.20;;;;;;;;;;108064;1247;23449;-80
2023/04/20 08:14:40;;;;;;;51.50;27.80;;;;;;;;;;108106;1247;22537;-80
2023/04/20 08:17:06;;;;;;;45.30;28.40;;;;;;;;;;108003;1250;22571;-81
2023/04/20 08:19:33;;;;;;;44.40;27.20;;;;;;;;;;108150;1248;22518;-79
2023/04/20 08:21:59;;;;;;;48.50;30.70;;;;;;;;;;108068;1247;23234;-81
2023/04/20 08:24:26;;;;;;;37.80;25.40;;;;;;;;;;108013;1252;26458;-81
2023/04/20 08:26:52;;;;;;;45.00;26.20;;;;;;;;;;108207;1248;22572;-80
2023/04/20 08:29:18;;;;;;;36.10;25.40;;;;;;;;;;107985;1248;24244;-80
2023/04/20 08:31:45;;;;;;;37.40;22.60;;;;;;;;;;108182;1252;25337;-80
2023/04/20 08:34:11;;;;;;;42.40;26.00;;;;;;;;;;108127;1252;22633;-79
2023/04/20 08:36:38;;;;;;;40.50;25.50;;;;;;;;;;108798;1247;23281;-80
2023/04/20 08:39:08;;;;;;;39.20;24.50;;;;;;;;;;108803;1248;22610;-80
2023/04/20 08:41:35;;;;;;;32.00;22.00;;;;;;;;;;108875;1248;22532;-81
2023/04/20 08:44:01;;;;;;;39.50;25.20;;;;;;;;;;108765;1247;22620;-80
2023/04/20 08:46:28;;;;;;;27.90;18.80;;;;;;;;;;108777;1247;22606;-80
2023/04/20 08:48:57;;;;;;;33.40;19.90;;;;;;;;;;108648;1248;24355;-81
2023/04/20 08:51:24;;;;;;;30.30;18.30;;;;;;;;;;108446;1248;22634;-79
2023/04/20 08:53:50;;;;;;;32.00;18.60;;;;;;;;;;108813;1248;22598;-80
2023/04/20 08:56:16;;;;;;;31.00;19.70;;;;;;;;;;108644;1247;26082;-81
2023/04/20 08:58:43;;;;;;;33.10;20.60;;;;;;;;;;108667;1247;24243;-81
2023/04/20 09:01:10;;;;;;;31.70;20.80;;;;;;;;;;108416;1247;22619;-81
2023/04/20 09:03:37;;;;;;;36.00;22.80;;;;;;;;;;108780;1248;22524;-79
2023/04/20 09:06:04;;;;;;;39.90;24.80;;;;;;;;;;108776;1247;23272;-80
2023/04/20 09:08:32;;;;;;;40.90;24.80;;;;;;;;;;108779;1247;25395;-80
2023/04/20 09:10:59;;;;;;;36.50;23.10;;;;;;;;;;108723;1247;22638;-81
2023/04/20 09:13:25;;;;;;;33.60;22.50;;;;;;;;;;108094;1247;22702;-81
2023/04/20 09:15:52;;;;;;;29.30;19.60;;;;;;;;;;108108;1248;24241;-79
2023/04/20 09:18:18;;;;;;;32.60;19.50;;;;;;;;;;108146;1247;22626;-81
2023/04/20 09:20:45;;;;;;;34.70;21.80;;;;;;;;;;108093;1247;22635;-81
2023/04/20 09:23:11;;;;;;;21.50;13.70;;;;;;;;;;108233;1247;22560;-81
2023/04/20 09:25:39;;;;;;;21.80;14.30;;;;;;;;;;108289;1247;22674;-81
2023/04/20 09:28:06;;;;;;;23.60;12.40;;;;;;;;;;108329;1247;25001;-79
2023/04/20 09:30:36;;;;;;;35.40;21.90;;;;;;;;;;109011;1247;23187;-77
2023/04/20 09:33:03;;;;;;;21.00;11.70;;;;;;;;;;108227;1247;22772;-78
2023/04/20 09:35:30;;;;;;;20.30;12.90;;;;;;;;;;108198;1248;22703;-78
2023/04/20 09:37:56;;;;;;;16.30;10.30;;;;;;;;;;108143;1248;22659;-80
2023/04/20 09:40:26;;;;;;;16.70;11.90;;;;;;;;;;107967;1248;22613;-81
2023/04/20 09:42:53;;;;;;;18.00;11.60;;;;;;;;;;108485;1247;22692;-80
2023/04/20 09:45:20;;;;;;;19.10;12.00;;;;;;;;;;108690;1248;25298;-81
2023/04/20 09:47:46;;;;;;;18.70;12.40;;;;;;;;;;108748;1248;22519;-79
2023/04/20 09:50:13;;;;;;;27.40;13.10;;;;;;;;;;108632;1247;25345;-80
2023/04/20 09:52:39;;;;;;;18.80;13.10;;;;;;;;;;108688;1248;22644;-81
2023/04/20 09:55:06;;;;;;;17.70;13.40;;;;;;;;;;108752;1247;22531;-78
2023/04/20 09:57:32;;;;;;;17.60;10.20;;;;;;;;;;108002;1248;22660;-80
2023/04/20 09:59:59;;;;;;;17.20;12.30;;;;;;;;;;107994;1247;23911;-79
2023/04/20 10:02:26;;;;;;;27.20;11.20;;;;;;;;;;107973;1252;22529;-81
2023/04/20 10:04:56;;;;;;;16.20;11.30;;;;;;;;;;109064;1247;26463;-81
2023/04/20 10:07:26;;;;;;;17.20;12.30;;;;;;;;;;108545;1248;22349;-81
2023/04/20 10:10:06;;;;;;;20.40;12.50;;;;;;;;;;107777;1253;22656;-79
2023/04/20 10:12:35;;;;;;;21.30;13.50;;;;;;;;;;108698;1247;23668;-79
2023/04/20 10:15:02;;;;;;;18.90;12.70;;;;;;;;;;108026;1248;22566;-79
2023/04/20 10:17:32;;;;;;;21.70;13.80;;;;;;;;;;108048;1251;23187;-79
2023/04/20 10:19:59;;;;;;;27.30;13.30;;;;;;;;;;108023;1248;24249;-79
2023/04/20 10:22:31;;;;;;;17.00;11.50;;;;;;;;;;107942;1247;23195;-80
2023/04/20 10:25:01;;;;;;;20.80;13.20;;;;;;;;;;108036;1247;22569;-80
2023/04/20 10:27:27;;;;;;;63.60;36.70;;;;;;;;;;108062;1248;22525;-78
2023/04/20 10:29:53;;;;;;;21.60;14.50;;;;;;;;;;109457;1247;22456;-78
2023/04/20 10:32:26;;;;;;;25.40;15.20;;;;;;;;;;108090;1247;22544;-79
2023/04/20 10:35:00;;;;;;;19.90;12.10;;;;;;;;;;108833;1248;22533;-78
2023/04/20 10:37:26;;;;;;;20.10;11.70;;;;;;;;;;108027;1248;22670;-78
2023/04/20 10:39:53;;;;;;;22.90;13.00;;;;;;;;;;107923;1248;22536;-78
2023/04/20 10:42:19;;;;;;;28.30;11.70;;;;;;;;;;107929;1252;25220;-78
2023/04/20 10:44:46;;;;;;;17.70;12.70;;;;;;;;;;107758;1248;22524;-78
2023/04/20 10:47:13;;;;;;;104.00;21.80;;;;;;;;;;107989;1253;25481;-79
2023/04/20 10:49:40;;;;;;;23.40;12.80;;;;;;;;;;107866;1247;22622;-80
2023/04/20 10:52:06;;;;;;;52.20;15.80;;;;;;;;;;107818;1248;22916;-79
2023/04/20 10:54:37;;;;;;;18.70;12.70;;;;;;;;;;107853;1252;26278;-79
2023/04/20 10:57:04;;;;;;;23.80;12.90;;;;;;;;;;107893;1247;22524;-79
2023/04/20 10:59:30;;;;;;;24.90;13.70;;;;;;;;;;107883;1253;22530;-80
2023/04/20 11:02:00;;;;;;;18.60;13.10;;;;;;;;;;107911;1251;24183;-79
2023/04/20 11:04:31;;;;;;;21.80;12.30;;;;;;;;;;107920;1247;25364;-78
2023/04/20 11:07:04;;;;;;;20.90;12.80;;;;;;;;;;108223;1252;24862;-78
2023/04/20 11:09:32;;;;;;;18.00;12.50;;;;;;;;;;107883;1247;23804;-78
2023/04/20 11:12:03;;;;;;;18.00;10.60;;;;;;;;;;108157;1248;22501;-78
2023/04/20 11:14:30;;;;;;;14.80;9.80;;;;;;;;;;108602;1248;22627;-78
2023/04/20 11:16:56;;;;;;;14.60;8.10;;;;;;;;;;108063;1247;25557;-79
2023/04/20 11:19:35;;;;;;;13.70;10.90;;;;;;;;;;108218;1251;22523;-78
2023/04/20 11:22:01;;;;;;;;;;;;;;;;;;107863;1247;22629;-79
2023/04/20 11:24:28;;;;;;;19.50;9.40;;;;;;;;;;108249;1250;25390;-79
2023/04/20 11:26:54;;;;;;;19.00;10.30;;;;;;;;;;108169;1248;25500;-78
2023/04/20 11:29:32;;;;;;;18.90;9.30;;;;;;;;;;107985;1248;22607;-79
2023/04/20 11:31:59;;;;;;;17.60;10.30;;;;;;;;;;108040;1248;24428;-78
2023/04/20 11:34:25;;;;;;;22.00;11.60;;;;;;;;;;108174;1248;25337;-79
2023/04/20 11:36:55;;;;;;;17.50;10.70;;;;;;;;;;108177;1253;22643;-78
2023/04/20 11:39:25;;;;;;;16.40;10.50;;;;;;;;;;107646;1251;24396;-78
2023/04/20 11:41:52;;;;;;;19.20;9.50;;;;;;;;;;107783;1248;25385;-79
2023/04/20 11:44:19;;;;;;;17.90;8.70;;;;;;;;;;107880;1247;25306;-78
2023/04/20 11:46:47;;;;;;;14.90;8.20;;;;;;;;;;107991;1248;22524;-79
2023/04/20 11:49:15;;;;;;;18.80;8.50;;;;;;;;;;107885;1252;22521;-79
2023/04/20 11:51:42;;;;;;;23.20;9.30;;;;;;;;;;107878;1252;22593;-78
2023/04/20 11:54:08;;;;;;;15.00;8.80;;;;;;;;;;108143;1247;23359;-78
2023/04/20 11:56:36;;;;;;;15.30;7.80;;;;;;;;;;107936;1248;24483;-78
2023/04/20 11:59:02;;;;;;;13.00;9.40;;;;;;;;;;108201;1248;22608;-79
2023/04/20 12:01:29;;;;;;;16.40;9.10;;;;;;;;;;108258;1252;23377;-79
2023/04/20 12:03:55;;;;;;;15.10;8.50;;;;;;;;;;108257;1247;22664;-78
2023/04/20 12:06:22;;;;;;;15.80;8.20;;;;;;;;;;108275;1250;22550;-79
2023/04/20 12:08:48;;;;;;;10.70;7.70;;;;;;;;;;108296;1248;22522;-79
2023/04/20 12:11:17;;;;;;;13.50;8.20;;;;;;;;;;107960;1248;22596;-79
2023/04/20 12:13:44;;;;;;;21.10;9.00;;;;;;;;;;108007;1250;23153;-79
2023/04/20 12:16:10;;;;;;;20.50;9.20;;;;;;;;;;107994;1251;22521;-78
2023/04/20 12:18:37;;;;;;;13.00;7.80;;;;;;;;;;107820;1252;26569;-79
2023/04/20 12:21:03;;;;;;;12.40;7.40;;;;;;;;;;108081;1248;23006;-79
2023/04/20 12:23:30;;;;;;;14.50;8.00;;;;;;;;;;107929;1252;25205;-80
2023/04/20 12:25:56;;;;;;;14.50;8.10;;;;;;;;;;107933;1252;25334;-80
2023/04/20 12:28:22;;;;;;;11.70;7.50;;;;;;;;;;108031;1248;25393;-80
2023/04/20 12:30:49;;;;;;;12.80;7.60;;;;;;;;;;108195;1253;25290;-80
2023/04/20 12:33:15;;;;;;;13.70;7.10;;;;;;;;;;107934;1253;22540;-80
2023/04/20 12:35:42;;;;;;;13.80;6.90;;;;;;;;;;108176;1250;24164;-79
2023/04/20 12:38:08;;;;;;;17.70;7.70;;;;;;;;;;108112;1253;22999;-80
2023/04/20 12:40:35;;;;;;;13.40;7.60;;;;;;;;;;108180;1248;23915;-80
2023/04/20 12:43:02;;;;;;;10.00;6.50;;;;;;;;;;108156;1247;23263;-79
2023/04/20 12:45:28;;;;;;;13.60;7.30;;;;;;;;;;108326;1253;22528;-81
2023/04/20 12:47:54;;;;;;;18.70;9.20;;;;;;;;;;108165;1253;22526;-80
2023/04/20 12:50:21;;;;;;;21.30;7.80;;;;;;;;;;107954;1248;25380;-80
2023/04/20 12:52:47;;;;;;;14.80;7.00;;;;;;;;;;107819;1253;22523;-79
2023/04/20 12:55:14;;;;;;;15.40;7.50;;;;;;;;;;108182;1247;24393;-80
2023/04/20 12:57:40;;;;;;;8.60;6.30;;;;;;;;;;107943;1250;24295;-80
2023/04/20 13:00:07;;;;;;;10.30;6.10;;;;;;;;;;108027;1248;25128;-80
2023/04/20 13:02:34;;;;;;;11.60;6.00;;;;;;;;;;108030;1248;22867;-79
2023/04/20 13:05:00;;;;;;;9.00;5.10;;;;;;;;;;108224;1247;27633;-79
2023/04/20 13:07:27;;;;;;;10.30;5.30;;;;;;;;;;108536;1253;22533;-81
2023/04/20 13:09:53;;;;;;;9.90;4.60;;;;;;;;;;108633;1248;22593;-81
2023/04/20 13:12:19;;;;;;;10.70;4.80;;;;;;;;;;108596;1252;22536;-80
2023/04/20 13:14:46;;;;;;;8.50;4.80;;;;;;;;;;108267;1248;22523;-81
2023/04/20 13:17:12;;;;;;;9.00;5.40;;;;;;;;;;108346;1253;22530;-81
2023/04/20 13:19:38;;;;;;;13.50;6.60;;;;;;;;;;108119;1248;22537;-81
2023/04/20 13:22:05;;;;;;;8.40;5.00;;;;;;;;;;108372;1247;22562;-81
2023/04/20 13:24:31;;;;;;;11.70;5.70;;;;;;;;;;108513;1253;25348;-80
2023/04/20 13:26:58;;;;;;;9.50;5.10;;;;;;;;;;108319;1251;22527;-81
2023/04/20 13:29:24;;;;;;;14.90;6.10;;;;;;;;;;108335;1248;25370;-81
2023/04/20 13:31:51;;;;;;;11.10;5.40;;;;;;;;;;108418;1248;23340;-80
2023/04/20 13:34:17;;;;;;;11.60;5.00;;;;;;;;;;109427;1248;22529;-81
2023/04/20 13:36:44;;;;;;;11.20;5.30;;;;;;;;;;109163;1247;22576;-81
2023/04/20 13:39:11;;;;;;;12.60;4.90;;;;;;;;;;108805;1247;22568;-81
2023/04/20 13:41:37;;;;;;;11.50;4.60;;;;;;;;;;108772;1247;25441;-81
2023/04/20 13:44:04;;;;;;;19.10;4.90;;;;;;;;;;108826;1248;24167;-81
2023/04/20 13:46:30;;;;;;;13.50;5.10;;;;;;;;;;108836;1247;23341;-81
2023/04/20 13:48:56;;;;;;;14.30;5.40;;;;;;;;;;109034;1251;22532;-81
2023/04/20 13:51:23;;;;;;;13.60;5.10;;;;;;;;;;109051;1248;22555;-80
2023/04/20 13:53:49;;;;;;;9.60;5.20;;;;;;;;;;109157;1248;23126;-81
2023/04/20 13:56:16;;;;;;;17.30;5.40;;;;;;;;;;109001;1247;23117;-79
2023/04/20 13:58:42;;;;;;;8.60;4.60;;;;;;;;;;107865;1248;175424;-78
2023/04/20 14:01:09;;;;;;;9.70;4.80;;;;;;;;;;107715;1248;24092;-78
2023/04/20 14:03:36;;;;;;;33.00;6.20;;;;;;;;;;107920;1248;23933;-78